Time;durP1;ratioP1;P1;durP2;ratioP2;P2;SDS_P1;SDS_P2;PMS_P1;PMS_P2;Temp;Humidity;BMP_temperature;BMP_pressure;BME280_temperature;BME280_humidity;BME280_pressure;Samples;Min_cycle;Max_cycle;Signal;HPM_P1;HPM_P2
2020/12/10 00:03:55;;;;;;;16.42;14.30;;;;;;;4.34;64.76;99499.41;9727084;28;20062;-69
2020/12/10 00:08:56;;;;;;;17.70;14.52;;;;;;;4.27;65.79;99495.53;9723920;28;20059;-70
2020/12/10 00:13:58;;;;;;;18.35;15.18;;;;;;;4.37;65.35;99496.59;9739098;28;20059;-69
2020/12/10 00:18:59;;;;;;;16.88;15.00;;;;;;;4.15;65.10;99487.47;9751617;28;20134;-68
2020/12/10 00:24:00;;;;;;;17.50;14.85;;;;;;;4.27;65.14;99495.53;9741997;28;20055;-68
2020/12/10 00:29:02;;;;;;;18.65;15.77;;;;;;;4.14;65.65;99469.97;9737261;28;20051;-69
2020/12/10 00:34:04;;;;;;;16.60;14.65;;;;;;;4.10;65.91;99492.22;9950554;28;20058;-69
2020/12/10 00:39:06;;;;;;;21.58;16.52;;;;;;;3.94;66.40;99475.72;9718803;28;20055;-69
2020/12/10 00:44:07;;;;;;;19.15;15.85;;;;;;;3.57;67.43;99467.56;9731586;28;20055;-69
2020/12/10 00:49:08;;;;;;;18.73;15.68;;;;;;;3.53;67.74;99472.19;9731888;28;21489;-69
2020/12/10 00:54:09;;;;;;;19.42;16.50;;;;;;;3.72;67.96;99472.69;9708448;28;20435;-70
2020/12/10 00:59:11;;;;;;;21.02;16.85;;;;;;;3.73;66.67;99457.75;9722936;28;21028;-69
2020/12/10 01:04:15;;;;;;;20.33;16.33;;;;;;;3.83;67.39;99458.00;9725476;28;23790;-69
2020/12/10 01:09:17;;;;;;;18.13;15.38;;;;;;;3.92;66.61;99456.53;9722657;28;24047;-70
2020/12/10 01:14:19;;;;;;;19.08;16.15;;;;;;;3.77;67.07;99458.38;9738247;28;20066;-70
2020/12/10 01:19:20;;;;;;;19.05;16.17;;;;;;;3.84;67.10;99460.53;9732949;28;20059;-70
2020/12/10 01:24:21;;;;;;;20.67;16.58;;;;;;;3.77;66.90;99464.50;9727350;28;20062;-68
2020/12/10 01:29:23;;;;;;;20.10;16.73;;;;;;;3.74;67.40;99454.19;9733039;28;20062;-69
2020/12/10 01:34:24;;;;;;;19.40;16.25;;;;;;;3.79;67.03;99462.59;9732990;28;20050;-69
2020/12/10 01:39:25;;;;;;;20.52;15.80;;;;;;;3.72;67.21;99459.53;9736591;28;20058;-69
2020/12/10 01:44:27;;;;;;;18.38;15.65;;;;;;;3.63;67.01;99451.38;9738050;28;20059;-68
2020/12/10 01:49:33;;;;;;;19.98;16.05;;;;;;;3.54;67.42;99448.41;9734934;28;22710;-69
2020/12/10 01:54:35;;;;;;;16.88;14.55;;;;;;;3.50;66.98;99449.53;9731305;28;20055;-69
2020/12/10 01:59:37;;;;;;;18.77;16.15;;;;;;;3.53;67.28;99446.72;9733581;28;20146;-69
2020/12/10 02:04:38;;;;;;;19.90;16.52;;;;;;;3.33;67.65;99445.38;9730254;28;20054;-68
2020/12/10 02:09:39;;;;;;;19.67;15.98;;;;;;;3.52;67.62;99431.84;9732906;28;20055;-69
2020/12/10 02:14:41;;;;;;;20.45;15.73;;;;;;;3.51;67.37;99438.09;9759115;28;20081;-68
2020/12/10 02:19:42;;;;;;;19.67;15.43;;;;;;;3.55;66.82;99433.44;9746765;28;20052;-69
2020/12/10 02:24:43;;;;;;;19.73;16.50;;;;;;;3.50;67.04;99433.75;9727979;28;20051;-68
2020/12/10 02:29:44;;;;;;;20.90;15.60;;;;;;;3.26;66.79;99424.78;9746093;28;20134;-68
2020/12/10 02:34:46;;;;;;;19.52;16.30;;;;;;;3.26;67.23;99432.66;9732812;28;20142;-67
2020/12/10 02:39:47;;;;;;;22.00;17.27;;;;;;;3.23;67.02;99411.81;9725757;28;20051;-68
2020/12/10 02:44:48;;;;;;;18.73;15.10;;;;;;;3.18;67.32;99412.97;9728026;28;20063;-68
2020/12/10 02:49:51;;;;;;;19.67;15.82;;;;;;;3.11;67.63;99406.41;9725385;28;20134;-69
2020/12/10 02:54:52;;;;;;;18.73;15.15;;;;;;;3.26;67.17;99401.09;9737569;28;23254;-69
2020/12/10 02:59:54;;;;;;;18.48;14.60;;;;;;;3.23;66.64;99401.31;9731532;28;20063;-69
2020/12/10 03:04:55;;;;;;;18.73;14.93;;;;;;;3.02;67.07;99399.09;9732523;28;20063;-68
2020/12/10 03:09:56;;;;;;;18.70;14.80;;;;;;;2.95;67.13;99400.44;9730790;28;20062;-70
2020/12/10 03:14:58;;;;;;;17.73;14.63;;;;;;;2.94;67.28;99398.72;9732459;28;20059;-69
2020/12/10 03:20:01;;;;;;;18.50;14.70;;;;;;;2.86;68.17;99390.50;9736468;28;20506;-70
2020/12/10 03:25:02;;;;;;;18.23;14.43;;;;;;;2.83;67.94;99386.25;9709996;28;20137;-69
2020/12/10 03:30:05;;;;;;;20.33;16.30;;;;;;;2.77;68.28;99384.84;9726272;28;20525;-68
2020/12/10 03:35:06;;;;;;;17.50;14.18;;;;;;;2.78;68.23;99376.03;9729450;28;20055;-70
2020/12/10 03:40:08;;;;;;;17.20;14.07;;;;;;;2.67;68.09;99367.97;9732864;28;20065;-69
2020/12/10 03:45:09;;;;;;;15.10;12.77;;;;;;;2.74;67.49;99369.28;9724573;28;20054;-70
2020/12/10 03:50:11;;;;;;;14.82;11.50;;;;;;;2.74;67.11;99368.44;9732819;28;20086;-69
2020/12/10 03:55:12;;;;;;;15.05;12.82;;;;;;;2.88;66.83;99362.31;9713454;28;21820;-68
2020/12/10 04:00:13;;;;;;;12.93;11.32;;;;;;;3.01;66.08;99363.22;9743738;28;20210;-69
2020/12/10 04:05:14;;;;;;;15.73;12.20;;;;;;;3.19;65.69;99358.59;9729947;28;20358;-68
2020/12/10 04:10:16;;;;;;;13.32;11.40;;;;;;;3.13;65.53;99353.72;9728155;28;20061;-71
2020/12/10 04:15:17;;;;;;;14.10;11.88;;;;;;;3.22;65.66;99362.81;9750978;28;20129;-69
2020/12/10 04:20:18;;;;;;;15.45;12.63;;;;;;;3.30;65.10;99356.13;9721441;28;20414;-70
2020/12/10 04:25:19;;;;;;;14.95;12.35;;;;;;;3.16;65.21;99353.53;9733564;28;20585;-68
2020/12/10 04:30:21;;;;;;;14.07;12.48;;;;;;;3.15;65.57;99357.09;9710073;28;21418;-70
2020/12/10 04:35:22;;;;;;;15.57;12.77;;;;;;;3.12;65.84;99347.63;9722715;28;20064;-69
2020/12/10 04:40:23;;;;;;;16.10;13.60;;;;;;;3.27;65.70;99342.31;9748322;28;20051;-69
2020/12/10 04:45:30;;;;;;;16.25;12.25;;;;;;;3.25;65.32;99326.63;9738271;28;21655;-68
2020/12/10 04:50:35;;;;;;;16.05;13.48;;;;;;;3.32;64.94;99322.66;9752846;28;20101;-70
2020/12/10 04:55:36;;;;;;;15.40;13.00;;;;;;;3.34;64.60;99330.44;9743712;28;20055;-70
2020/12/10 05:00:38;;;;;;;17.27;14.00;;;;;;;3.25;65.39;99317.91;9746495;28;20061;-68
2020/12/10 05:05:39;;;;;;;16.98;15.15;;;;;;;3.30;65.54;99302.66;9742618;28;20461;-69
2020/12/10 05:10:45;;;;;;;16.67;14.15;;;;;;;3.42;66.11;99312.34;9729867;28;20070;-68
2020/12/10 05:15:46;;;;;;;18.00;15.48;;;;;;;3.30;65.52;99308.78;9740796;28;20062;-71
2020/12/10 05:20:55;;;;;;;17.65;15.00;;;;;;;3.33;65.75;99313.84;9733627;28;20089;-69
2020/12/10 05:25:57;;;;;;;15.38;11.70;;;;;;;3.29;65.22;99311.50;9726488;28;20064;-69
2020/12/10 05:31:03;;;;;;;16.17;13.10;;;;;;;3.42;64.02;99317.63;9725194;28;20544;-70
2020/12/10 05:36:10;;;;;;;18.70;15.52;;;;;;;3.30;65.21;99326.31;9734154;28;20066;-69
2020/12/10 05:41:19;;;;;;;19.58;15.68;;;;;;;3.11;66.17;99324.91;9749237;28;20051;-70
2020/12/10 05:46:25;;;;;;;15.45;13.32;;;;;;;3.26;65.21;99322.19;9756994;28;20078;-69
2020/12/10 05:51:29;;;;;;;17.13;14.13;;;;;;;3.24;64.31;99324.09;9737360;28;20070;-69
2020/12/10 05:56:38;;;;;;;15.40;12.88;;;;;;;3.22;64.38;99331.25;9753725;28;20088;-69
2020/12/10 06:01:39;;;;;;;16.27;13.35;;;;;;;3.21;64.25;99334.81;9738182;28;20051;-69
2020/12/10 06:06:41;;;;;;;16.70;13.10;;;;;;;3.13;64.37;99320.38;9743762;28;20338;-68
2020/12/10 06:11:42;;;;;;;16.23;14.07;;;;;;;3.31;64.18;99326.22;9729292;28;20066;-70
2020/12/10 06:16:44;;;;;;;17.33;13.55;;;;;;;3.48;64.26;99327.78;9727636;28;20059;-72
2020/12/10 06:21:46;;;;;;;18.27;14.65;;;;;;;3.39;63.29;99323.09;9725757;28;20664;-72
2020/12/10 06:26:48;;;;;;;17.15;13.13;;;;;;;3.38;63.57;99326.69;9722890;28;20134;-69
2020/12/10 06:32:02;;;;;;;18.95;14.45;;;;;;;3.41;63.70;99337.00;9718871;28;20458;-70
2020/12/10 06:37:23;;;;;;;18.23;13.93;;;;;;;3.41;63.65;99339.63;9726947;28;20052;-69
2020/12/10 06:42:42;;;;;;;18.23;15.70;;;;;;;3.38;64.08;99337.19;9692030;28;21134;-71
2020/12/10 06:47:44;;;;;;;19.83;14.80;;;;;;;3.34;63.60;99325.19;9699357;28;20053;-70
2020/12/10 06:53:18;;;;;;;19.90;16.30;;;;;;;3.36;63.94;99331.19;9718642;28;20050;-68
2020/12/10 06:58:20;;;;;;;17.42;14.52;;;;;;;3.38;63.39;99329.31;9723452;28;20057;-68
2020/12/10 07:03:29;;;;;;;17.08;13.63;;;;;;;3.26;63.20;99341.47;9711952;28;24390;-67
2020/12/10 07:08:31;;;;;;;18.02;14.05;;;;;;;3.14;63.56;99345.72;9694353;28;20051;-68
2020/12/10 07:13:32;;;;;;;19.35;14.60;;;;;;;3.24;63.64;99353.03;9701586;28;20047;-69
2020/12/10 07:18:33;;;;;;;17.92;15.02;;;;;;;3.28;63.20;99349.25;9930460;28;20905;-69
2020/12/10 07:23:35;;;;;;;16.33;14.40;;;;;;;3.16;63.09;99346.47;9692895;28;20051;-69
2020/12/10 07:28:36;;;;;;;17.75;13.90;;;;;;;3.24;62.86;99358.28;9713820;28;20051;-68
2020/12/10 07:33:38;;;;;;;18.35;14.35;;;;;;;3.19;63.55;99335.75;9730985;28;20054;-68
2020/12/10 07:38:45;;;;;;;19.00;15.05;;;;;;;3.42;62.89;99351.00;9711033;28;20055;-69
2020/12/10 07:43:52;;;;;;;17.30;14.27;;;;;;;3.39;63.17;99348.56;9697795;28;20055;-66
2020/12/10 07:48:54;;;;;;;17.17;13.63;;;;;;;3.33;62.62;99348.03;9693590;28;20086;-68
2020/12/10 07:54:03;;;;;;;18.15;14.93;;;;;;;3.44;63.22;99346.47;9694448;28;20059;-70
2020/12/10 07:59:19;;;;;;;22.00;15.82;;;;;;;3.40;62.98;99348.47;9718683;28;20051;-70
2020/12/10 08:04:23;;;;;;;17.95;15.07;;;;;;;3.55;63.05;99354.50;9726384;28;20079;-70
2020/12/10 08:09:25;;;;;;;19.00;14.87;;;;;;;3.43;63.02;99352.69;9696058;28;22578;-69
2020/12/10 08:14:30;;;;;;;21.05;15.70;;;;;;;3.40;63.17;99352.88;9706673;28;20043;-70
2020/12/10 08:19:32;;;;;;;19.02;15.75;;;;;;;3.24;63.65;99360.91;9679764;28;20876;-69
2020/12/10 08:24:38;;;;;;;22.88;17.40;;;;;;;3.25;63.82;99366.06;9703322;28;20062;-70
2020/12/10 08:30:00;;;;;;;18.33;15.57;;;;;;;3.12;63.97;99357.28;9699211;28;24065;-71
2020/12/10 08:35:10;;;;;;;20.10;16.17;;;;;;;3.03;65.19;99369.22;9710956;28;20130;-70
2020/12/10 08:40:13;;;;;;;18.88;15.55;;;;;;;3.06;64.64;99363.78;9698470;28;20067;-70
2020/12/10 08:45:28;;;;;;;18.75;16.35;;;;;;;3.12;64.71;99350.25;9715041;28;20077;-70
2020/12/10 08:50:30;;;;;;;21.00;17.13;;;;;;;3.30;64.39;99355.25;9721518;28;20090;-70
2020/12/10 08:55:38;;;;;;;21.30;16.80;;;;;;;3.40;63.97;99348.47;9719029;28;20481;-68
2020/12/10 09:00:40;;;;;;;18.40;15.77;;;;;;;3.45;63.57;99353.41;9694450;28;20051;-70
2020/12/10 09:05:43;;;;;;;22.13;17.23;;;;;;;3.49;63.58;99366.28;9688912;28;20130;-71
2020/12/10 09:10:45;;;;;;;25.13;19.55;;;;;;;3.39;63.96;99349.38;9687444;28;20251;-71
2020/12/10 09:15:48;;;;;;;21.90;17.83;;;;;;;3.52;63.70;99355.53;9689869;28;20250;-71
2020/12/10 09:20:49;;;;;;;21.02;17.48;;;;;;;3.46;63.47;99345.41;9697059;28;20134;-71
2020/12/10 09:25:51;;;;;;;24.50;18.67;;;;;;;3.53;63.65;99341.44;9697791;28;20137;-71
2020/12/10 09:30:52;;;;;;;20.73;17.58;;;;;;;3.58;63.68;99343.78;9690519;28;20205;-71
2020/12/10 09:35:54;;;;;;;22.88;17.55;;;;;;;3.54;63.11;99332.63;9718600;28;20055;-72
2020/12/10 09:40:56;;;;;;;24.10;19.05;;;;;;;3.54;63.62;99351.03;9705033;28;20502;-72
2020/12/10 09:46:11;;;;;;;26.83;19.77;;;;;;;3.47;63.82;99335.75;9726961;28;20070;-71
2020/12/10 09:51:13;;;;;;;23.33;17.08;;;;;;;3.41;63.67;99341.41;9715986;28;20059;-72
2020/12/10 10:01:18;;;;;;;20.83;16.20;;;;;;;3.70;63.57;99332.44;9752109;28;20083;-71
2020/12/10 10:06:22;;;;;;;21.67;17.50;;;;;;;3.85;63.48;99325.28;9706883;28;21445;-71
2020/12/10 10:11:25;;;;;;;20.70;14.40;;;;;;;3.72;63.08;99334.97;9716409;28;20183;-71
2020/12/10 10:16:28;;;;;;;24.05;16.65;;;;;;;3.77;63.24;99324.97;9711506;28;20054;-71
2020/12/10 10:21:30;;;;;;;26.67;19.42;;;;;;;3.70;63.53;99321.06;9700706;28;20055;-71
2020/12/10 10:26:32;;;;;;;23.73;17.13;;;;;;;3.70;63.67;99313.16;9742474;28;20313;-71
2020/12/10 10:31:33;;;;;;;23.95;19.75;;;;;;;3.70;63.83;99305.28;9686761;28;20514;-70
2020/12/10 10:36:35;;;;;;;23.08;18.13;;;;;;;3.88;63.31;99304.03;9692203;28;20191;-71
2020/12/10 10:41:41;;;;;;;23.98;19.05;;;;;;;3.91;63.35;99307.41;9702792;28;20047;-71
2020/12/10 10:46:42;;;;;;;22.90;18.05;;;;;;;3.97;63.00;99301.72;9674442;28;24280;-71
2020/12/10 10:51:47;;;;;;;22.88;18.27;;;;;;;4.02;62.48;99304.88;9688996;28;20055;-72
2020/12/10 10:56:48;;;;;;;26.00;18.93;;;;;;;4.14;62.68;99298.75;9688334;28;20062;-72
2020/12/10 11:01:50;;;;;;;22.00;17.10;;;;;;;4.06;62.21;99280.03;9708827;28;20501;-71
2020/12/10 11:06:51;;;;;;;22.38;18.20;;;;;;;4.17;62.22;99293.28;9962503;23;20054;-72
2020/12/10 11:11:53;;;;;;;24.30;18.98;;;;;;;4.27;62.57;99297.94;9782268;28;20062;-72
2020/12/10 11:16:57;;;;;;;23.23;18.23;;;;;;;4.22;61.86;99290.34;9795678;28;20046;-72
2020/12/10 11:22:00;;;;;;;20.70;16.30;;;;;;;4.21;61.90;99297.38;9810446;28;20050;-72
2020/12/10 11:27:02;;;;;;;21.50;16.92;;;;;;;4.27;61.98;99297.94;9788685;28;20058;-72
2020/12/10 11:32:03;;;;;;;20.23;15.38;;;;;;;4.18;61.69;99294.97;9790342;28;20058;-74
2020/12/10 11:37:05;;;;;;;20.23;16.33;;;;;;;4.06;62.23;99295.81;9811089;28;20050;-72
2020/12/10 11:42:06;;;;;;;21.05;17.02;;;;;;;4.03;62.62;99296.03;9848527;28;20700;-72
2020/12/10 11:47:10;;;;;;;20.95;16.92;;;;;;;4.15;62.09;99287.28;9798337;28;20152;-73
2020/12/10 11:52:17;;;;;;;27.38;20.80;;;;;;;4.23;62.55;99303.41;9814328;28;20427;-72
2020/12/10 11:57:19;;;;;;;21.45;17.30;;;;;;;4.15;62.00;99295.19;9811962;28;20100;-71
2020/12/10 12:02:20;;;;;;;17.35;14.13;;;;;;;4.01;62.00;99293.50;9808567;28;22358;-71
2020/12/10 12:07:21;;;;;;;19.13;15.27;;;;;;;3.85;62.73;99293.69;9810465;28;20053;-71
2020/12/10 12:12:23;;;;;;;18.17;14.30;;;;;;;3.86;62.24;99308.56;9823975;28;21566;-72
2020/12/10 12:17:24;;;;;;;17.05;15.02;;;;;;;3.86;62.46;99300.66;9811412;28;20064;-72
2020/12/10 12:22:26;;;;;;;16.67;14.43;;;;;;;3.95;62.23;99293.06;9767214;28;20057;-71
2020/12/10 12:27:27;;;;;;;18.80;15.23;;;;;;;3.97;62.27;99288.56;9834354;28;20070;-72
2020/12/10 12:32:28;;;;;;;17.75;13.80;;;;;;;3.99;61.84;99274.31;9819484;28;20050;-72
2020/12/10 12:37:30;;;;;;;16.02;13.55;;;;;;;3.96;61.91;99278.97;9828912;28;21480;-72
2020/12/10 12:42:31;;;;;;;15.98;11.38;;;;;;;4.06;61.62;99266.84;9828958;28;22385;-72
2020/12/10 12:47:33;;;;;;;15.48;12.68;;;;;;;3.96;61.09;99273.69;9806237;28;20081;-73
2020/12/10 12:52:34;;;;;;;13.38;10.93;;;;;;;3.87;61.58;99276.03;9799678;28;20061;-72
2020/12/10 12:57:35;;;;;;;19.67;17.23;;;;;;;3.89;61.47;99268.84;9794518;28;20050;-71
2020/12/10 13:02:37;;;;;;;16.17;12.38;;;;;;;3.77;61.67;99269.69;9808420;28;20050;-72
2020/12/10 13:07:38;;;;;;;13.38;11.52;;;;;;;3.82;62.11;99269.38;9807887;28;20050;-73
2020/12/10 13:12:39;;;;;;;13.32;11.93;;;;;;;3.85;61.79;99267.38;9793526;28;20467;-72
2020/12/10 13:17:41;;;;;;;14.25;11.63;;;;;;;3.74;61.58;99266.41;9797270;28;20633;-72
2020/12/10 13:22:42;;;;;;;12.77;11.48;;;;;;;3.84;61.92;99265.72;9797669;28;20408;-72
2020/12/10 13:27:43;;;;;;;13.85;11.60;;;;;;;3.92;61.67;99262.53;9789762;28;20240;-72
2020/12/10 13:32:46;;;;;;;15.40;11.32;;;;;;;3.79;61.03;99273.06;9801859;28;20055;-72
2020/12/10 13:37:47;;;;;;;12.68;11.32;;;;;;;3.77;61.73;99268.84;9807831;28;20085;-72
2020/12/10 13:42:49;;;;;;;13.25;11.73;;;;;;;3.89;61.63;99268.03;9809247;28;20065;-71
2020/12/10 13:47:50;;;;;;;13.05;10.77;;;;;;;3.85;61.36;99266.53;9817075;28;20054;-70
2020/12/10 13:52:51;;;;;;;14.20;10.52;;;;;;;3.73;60.95;99262.94;9801935;28;20436;-72
2020/12/10 13:57:53;;;;;;;13.15;11.00;;;;;;;3.60;61.70;99264.72;9791532;28;20054;-72
2020/12/10 14:02:54;;;;;;;11.95;10.60;;;;;;;3.62;61.57;99261.06;9793202;28;20058;-71
2020/12/10 14:07:55;;;;;;;15.25;12.05;;;;;;;3.76;61.95;99246.94;9773949;28;676556;-72
2020/12/10 14:12:57;;;;;;;14.05;11.50;;;;;;;3.84;61.58;99257.81;9814383;28;20054;-71
2020/12/10 14:17:58;;;;;;;13.70;10.95;;;;;;;3.80;61.32;99258.97;9798114;28;20113;-72
2020/12/10 14:22:59;;;;;;;13.82;11.60;;;;;;;3.68;62.13;99265.06;9815231;28;20084;-71
2020/12/10 14:28:01;;;;;;;14.32;11.15;;;;;;;3.73;61.44;99268.22;9812789;28;20054;-71
2020/12/10 14:33:07;;;;;;;13.75;11.10;;;;;;;3.79;61.87;99275.69;9818938;28;20056;-73
2020/12/10 14:38:10;;;;;;;14.77;11.75;;;;;;;3.79;61.84;99262.53;9813271;28;20677;-72
2020/12/10 14:43:12;;;;;;;13.57;11.07;;;;;;;3.79;61.58;99273.06;9816555;28;24248;-72
2020/12/10 14:48:13;;;;;;;14.00;11.35;;;;;;;3.69;61.70;99282.53;9808509;28;20054;-72
2020/12/10 14:53:15;;;;;;;11.80;9.43;;;;;;;3.34;62.18;99277.84;9815477;28;20103;-72
2020/12/10 14:58:16;;;;;;;15.88;10.77;;;;;;;3.54;62.40;99274.72;9791995;28;20076;-72
2020/12/10 15:03:18;;;;;;;13.07;10.18;;;;;;;3.56;62.22;99271.13;10041454;28;20827;-72
2020/12/10 15:08:19;;;;;;;11.07;9.55;;;;;;;3.64;61.77;99271.47;9798145;28;20051;-72
2020/12/10 15:13:21;;;;;;;10.48;9.25;;;;;;;3.38;62.71;99283.72;9807867;28;20330;-72
2020/12/10 15:18:22;;;;;;;9.95;8.40;;;;;;;3.30;62.91;99271.94;9823625;28;23253;-72
2020/12/10 15:23:23;;;;;;;10.77;9.40;;;;;;;3.44;62.36;99276.28;9786758;28;25209;-73
2020/12/10 15:28:26;;;;;;;10.15;8.48;;;;;;;3.27;62.76;99276.53;9824187;28;20054;-72
2020/12/10 15:33:27;;;;;;;10.77;9.20;;;;;;;3.12;63.01;99279.25;9841981;28;20061;-72
2020/12/10 15:38:28;;;;;;;11.05;8.95;;;;;;;3.28;63.07;99280.88;9816797;28;20128;-71
2020/12/10 15:43:33;;;;;;;9.25;8.25;;;;;;;3.27;63.11;99284.44;9806583;28;20106;-71
2020/12/10 15:48:34;;;;;;;12.23;10.73;;;;;;;3.10;63.54;99286.38;9819664;28;20748;-71
2020/12/10 15:53:36;;;;;;;12.48;10.30;;;;;;;3.15;64.06;99289.56;9824778;28;21643;-70
2020/12/10 15:58:37;;;;;;;11.15;9.35;;;;;;;3.19;63.67;99288.41;9810524;28;20054;-70
2020/12/10 16:03:38;;;;;;;13.52;11.73;;;;;;;3.24;64.12;99292.53;9809567;28;20106;-72
2020/12/10 16:08:40;;;;;;;10.70;9.60;;;;;;;3.39;63.43;99294.16;9796306;28;20050;-73
2020/12/10 16:13:41;;;;;;;13.20;11.02;;;;;;;3.47;63.22;99291.88;9808408;28;21437;-70
2020/12/10 16:18:42;;;;;;;12.18;10.88;;;;;;;3.59;62.79;99297.25;9800032;28;21831;-71
2020/12/10 16:23:44;;;;;;;11.55;10.07;;;;;;;3.53;62.98;99291.44;9788367;28;20120;-71
2020/12/10 16:28:45;;;;;;;15.50;10.88;;;;;;;3.56;63.53;99294.81;9809275;28;20552;-70
2020/12/10 16:33:46;;;;;;;13.82;11.25;;;;;;;3.49;63.27;99287.34;9788783;28;20069;-70
2020/12/10 16:38:48;;;;;;;13.93;11.63;;;;;;;3.67;62.90;99289.69;9808266;28;20046;-70
2020/12/10 16:43:49;;;;;;;11.25;10.15;;;;;;;3.63;62.50;99294.28;9808664;28;20051;-69
2020/12/10 16:48:50;;;;;;;14.18;10.80;;;;;;;3.63;63.03;99294.28;9794186;28;22973;-70
2020/12/10 16:53:51;;;;;;;13.23;11.45;;;;;;;3.56;62.88;99292.19;9813420;28;20085;-70
2020/12/10 16:58:53;;;;;;;14.80;12.02;;;;;;;3.62;63.20;99286.50;9796470;28;24839;-71
2020/12/10 17:03:54;;;;;;;15.43;12.63;;;;;;;3.59;63.03;99302.50;9814669;28;20050;-70
2020/12/10 17:09:12;;;;;;;13.23;11.02;;;;;;;3.53;63.21;99288.00;9810964;28;20097;-71
2020/12/10 17:14:13;;;;;;;13.32;11.43;;;;;;;3.50;63.53;99298.72;9814517;28;20054;-72
2020/12/10 17:19:15;;;;;;;13.07;11.68;;;;;;;3.60;63.20;99288.41;9815076;28;20054;-71
2020/12/10 17:24:17;;;;;;;15.00;13.02;;;;;;;3.53;63.18;99301.16;9797944;28;20133;-72
2020/12/10 17:29:18;;;;;;;14.43;12.23;;;;;;;3.72;62.98;99295.47;9793425;28;20081;-71
2020/12/10 17:34:20;;;;;;;15.65;13.20;;;;;;;3.82;62.95;99299.16;9811427;28;20062;-70
2020/12/10 17:39:21;;;;;;;14.63;12.68;;;;;;;3.86;63.05;99300.66;9791836;28;20065;-72
2020/12/10 17:44:23;;;;;;;13.73;12.10;;;;;;;3.81;62.83;99300.13;9822396;28;20495;-71
2020/12/10 17:49:24;;;;;;;14.02;12.05;;;;;;;3.86;62.79;99311.19;9811402;28;22471;-71
2020/12/10 17:54:26;;;;;;;16.80;13.18;;;;;;;3.80;62.73;99311.59;9788003;28;20097;-71
2020/12/10 17:59:28;;;;;;;15.73;12.95;;;;;;;3.79;63.46;99315.19;9810719;28;20054;-71
2020/12/10 18:04:29;;;;;;;19.17;13.90;;;;;;;3.79;63.25;99315.19;9795977;28;22321;-70
2020/12/10 18:09:30;;;;;;;15.23;12.68;;;;;;;4.05;63.05;99323.09;9786760;28;20054;-71
2020/12/10 18:14:33;;;;;;;15.38;12.82;;;;;;;3.94;62.02;99309.84;9816764;28;20062;-70
2020/12/10 18:19:34;;;;;;;15.43;12.85;;;;;;;3.94;62.43;99309.84;9811082;28;20058;-72
2020/12/10 18:24:35;;;;;;;16.05;12.98;;;;;;;4.00;62.18;99307.59;9831695;28;20081;-72
2020/12/10 18:29:49;;;;;;;16.98;14.18;;;;;;;4.12;62.58;99308.56;9822766;28;20051;-71
2020/12/10 18:34:50;;;;;;;20.17;16.85;;;;;;;4.26;61.63;99315.50;9820882;28;20065;-72
2020/12/10 18:39:52;;;;;;;18.75;14.95;;;;;;;4.20;61.33;99323.84;9787970;28;20050;-72
2020/12/10 18:44:53;;;;;;;17.25;15.48;;;;;;;4.00;62.62;99314.69;9798290;28;21004;-71
2020/12/10 18:49:54;;;;;;;18.85;15.77;;;;;;;4.00;62.56;99315.50;9811831;28;20404;-70
2020/12/10 18:54:55;;;;;;;18.98;15.85;;;;;;;3.92;62.98;99309.94;9808855;28;20073;-72
2020/12/10 18:59:57;;;;;;;20.15;16.70;;;;;;;3.72;63.10;99306.88;9827643;28;20245;-72
2020/12/10 19:04:59;;;;;;;21.77;18.83;;;;;;;3.68;64.07;99307.19;9817725;28;20058;-73
2020/12/10 19:10:00;;;;;;;20.88;16.88;;;;;;;3.82;63.37;99311.50;9811464;28;25248;-72
2020/12/10 19:15:04;;;;;;;22.83;17.92;;;;;;;3.76;63.48;99307.50;9807257;28;22857;-71
2020/12/10 19:20:05;;;;;;;35.75;32.17;;;;;;;3.78;63.70;99295.06;9790805;28;20069;-74
2020/12/10 19:25:07;;;;;;;24.00;21.50;;;;;;;3.75;63.11;99303.16;9806745;28;20054;-72
2020/12/10 19:30:09;;;;;;;21.20;17.42;;;;;;;3.58;64.16;99292.94;9807780;28;20050;-71
2020/12/10 19:35:10;;;;;;;22.67;16.20;;;;;;;3.63;63.94;99298.72;9806462;28;20054;-71
2020/12/10 19:40:11;;;;;;;22.50;19.27;;;;;;;3.61;64.09;99300.63;9804685;28;20054;-72
2020/12/10 19:45:13;;;;;;;19.98;15.80;;;;;;;3.61;64.04;99301.47;9785101;28;20637;-72
2020/12/10 19:50:14;;;;;;;19.50;14.48;;;;;;;3.71;63.92;99296.44;9796461;28;20105;-69
2020/12/10 19:55:18;;;;;;;18.50;15.30;;;;;;;3.75;64.23;99292.63;9790300;28;20058;-71
2020/12/10 20:00:24;;;;;;;19.33;17.33;;;;;;;3.76;63.96;99299.59;9798167;28;20062;-72
2020/12/10 20:05:27;;;;;;;25.25;22.65;;;;;;;3.61;64.66;99305.91;9791808;28;20498;-70
2020/12/10 20:10:28;;;;;;;20.25;18.08;;;;;;;3.53;64.91;99309.88;9782718;28;20187;-71
2020/12/10 20:15:30;;;;;;;17.25;15.45;;;;;;;3.42;65.26;99306.25;9778113;28;20050;-70
2020/12/10 20:20:31;;;;;;;18.98;15.00;;;;;;;3.56;65.09;99310.59;9786857;28;20054;-71
2020/12/10 20:25:48;;;;;;;18.65;14.77;;;;;;;3.54;65.07;99316.84;9817238;28;24409;-73
2020/12/10 20:30:54;;;;;;;17.88;15.75;;;;;;;3.53;65.01;99316.94;9793969;28;20062;-70
2020/12/10 20:36:04;;;;;;;17.73;14.70;;;;;;;3.58;65.16;99317.47;9813752;28;20058;-72
2020/12/10 20:41:06;;;;;;;19.27;14.30;;;;;;;3.51;65.22;99314.41;9810853;28;20540;-71
2020/12/10 20:46:08;;;;;;;18.02;15.93;;;;;;;3.46;65.67;99313.00;9794171;28;20772;-71
2020/12/10 20:51:09;;;;;;;18.05;14.60;;;;;;;3.52;65.51;99318.69;9807537;28;20058;-69
2020/12/10 20:56:11;;;;;;;16.92;15.10;;;;;;;3.56;65.56;99315.88;9824512;28;20050;-71
2020/12/10 21:01:12;;;;;;;21.58;19.27;;;;;;;3.64;65.44;99310.94;9806920;28;20054;-71
2020/12/10 21:06:15;;;;;;;17.80;15.55;;;;;;;3.71;65.21;99291.19;9799440;28;20116;-71
2020/12/10 21:11:23;;;;;;;15.57;13.35;;;;;;;3.69;65.09;99290.41;9811713;28;20520;-71
2020/12/10 21:16:25;;;;;;;13.70;12.25;;;;;;;3.63;64.53;99283.78;9815696;28;20050;-71
2020/12/10 21:21:27;;;;;;;16.00;13.68;;;;;;;3.63;65.02;99283.78;9828483;28;24117;-72
2020/12/10 21:26:28;;;;;;;17.00;14.02;;;;;;;3.62;65.13;99282.09;9835496;28;20739;-72
2020/12/10 21:31:30;;;;;;;15.38;13.35;;;;;;;3.69;65.13;99266.72;9800427;28;20938;-72
2020/12/10 21:36:31;;;;;;;17.13;13.40;;;;;;;3.80;64.67;99258.09;9821179;28;22485;-71
2020/12/10 21:41:33;;;;;;;17.10;14.38;;;;;;;3.78;64.64;99255.56;9816602;28;21105;-71
2020/12/10 21:46:34;;;;;;;19.42;15.38;;;;;;;3.77;64.79;99259.16;9817426;28;20056;-71
2020/12/10 21:51:35;;;;;;;16.25;14.07;;;;;;;3.82;64.62;99257.06;9828895;28;20050;-72
2020/12/10 21:56:37;;;;;;;16.45;14.32;;;;;;;3.82;64.71;99243.88;9789401;28;20061;-72
2020/12/10 22:01:39;;;;;;;17.65;15.18;;;;;;;3.85;64.82;99240.22;9823318;28;20380;-71
2020/12/10 22:06:41;;;;;;;17.05;14.57;;;;;;;3.85;64.60;99233.16;9808042;28;22258;-75
2020/12/10 22:11:44;;;;;;;30.38;24.73;;;;;;;3.90;64.58;99238.09;9822177;28;20066;-73
2020/12/10 22:16:47;;;;;;;20.70;17.58;;;;;;;3.94;64.67;99212.41;9844676;28;20254;-71
2020/12/10 22:21:52;;;;;;;20.23;17.08;;;;;;;4.00;64.64;99218.06;9826845;28;20086;-71
2020/12/10 22:26:55;;;;;;;19.00;15.57;;;;;;;3.96;64.43;99213.13;9820610;28;20571;-72
2020/12/10 22:31:56;;;;;;;19.10;16.95;;;;;;;4.00;64.48;99217.25;9818952;28;20102;-72
2020/12/10 22:36:58;;;;;;;19.52;15.88;;;;;;;4.01;64.81;99213.66;9820198;28;20058;-72
2020/12/10 22:42:00;;;;;;;22.20;17.60;;;;;;;3.95;65.14;99208.81;9811054;28;20057;-72
2020/12/10 22:47:03;;;;;;;21.23;17.40;;;;;;;3.93;65.65;99215.97;9800349;28;20055;-70
2020/12/10 22:52:05;;;;;;;22.73;18.63;;;;;;;3.89;65.57;99200.41;9806744;28;20093;-74
2020/12/10 22:57:06;;;;;;;22.52;17.20;;;;;;;3.90;65.64;99206.50;9812925;28;20058;-72
2020/12/10 23:02:08;;;;;;;20.92;17.13;;;;;;;3.84;65.69;99199.03;9793922;28;20054;-71
2020/12/10 23:07:09;;;;;;;20.88;17.52;;;;;;;3.81;65.75;99181.66;9787210;28;20548;-70
2020/12/10 23:12:10;;;;;;;20.60;16.65;;;;;;;3.75;65.97;99197.03;9809128;28;23189;-72
2020/12/10 23:17:11;;;;;;;22.05;17.77;;;;;;;3.78;66.05;99176.59;9800240;28;20100;-70
2020/12/10 23:22:13;;;;;;;21.10;17.00;;;;;;;3.83;66.07;99177.13;9808179;28;20050;-72
2020/12/10 23:27:14;;;;;;;19.55;17.50;;;;;;;3.83;66.23;99176.31;9805600;28;20658;-71
2020/12/10 23:32:15;;;;;;;19.60;15.38;;;;;;;3.74;65.88;99169.03;9812830;28;21470;-71
2020/12/10 23:37:17;;;;;;;18.10;15.27;;;;;;;3.70;66.02;99173.66;9815046;28;20145;-71